Time;durP1;ratioP1;P1;durP2;ratioP2;P2;SDS_P1;SDS_P2;PMS_P1;PMS_P2;Temp;Humidity;BMP_temperature;BMP_pressure;BME280_temperature;BME280_humidity;BME280_pressure;Samples;Min_cycle;Max_cycle;Signal;HPM_P1;HPM_P2
2023/07/10 00:00:59;;;;;;;;;3.00;3.00;;;;;26.80;42.36;101651.09;4921314;28;45424;-43
2023/07/10 00:03:25;;;;;;;;;4.75;3.00;;;;;26.79;42.62;101648.56;4921501;28;45563;-46
2023/07/10 00:05:50;;;;;;;;;4.00;3.00;;;;;26.79;42.51;101651.22;4921004;28;46609;-45
2023/07/10 00:08:15;;;;;;;;;5.75;2.00;;;;;26.77;42.21;101648.63;4920310;28;63339;-43
2023/07/10 00:10:41;;;;;;;;;3.50;3.00;;;;;26.78;42.36;101655.66;4921200;28;45550;-46
2023/07/10 00:13:10;;;;;;;;;4.50;3.50;;;;;26.77;42.27;101650.44;4920050;28;45815;-45
2023/07/10 00:15:39;;;;;;;;;3.00;2.50;;;;;26.76;42.26;101649.56;4921187;28;45660;-48
2023/07/10 00:18:15;;;;;;;;;3.25;2.75;;;;;26.77;42.02;101656.59;4920999;28;45397;-48
2023/07/10 00:20:41;;;;;;;;;4.75;4.00;;;;;26.77;42.27;101661.91;4920857;28;45382;-45
2023/07/10 00:23:07;;;;;;;;;9.00;5.50;;;;;26.74;42.33;101664.78;4921434;28;45610;-44
2023/07/10 00:25:32;;;;;;;;;8.50;7.00;;;;;26.76;41.82;101667.34;4920769;28;45612;-45
2023/07/10 00:27:57;;;;;;;;;5.50;5.00;;;;;26.75;41.79;101671.78;4920828;28;45349;-45
2023/07/10 00:30:24;;;;;;;;;5.75;5.75;;;;;26.74;41.91;101672.75;4920876;28;45370;-45
2023/07/10 00:32:52;;;;;;;;;10.50;7.00;;;;;26.75;41.84;101662.97;4920911;28;45552;-46
2023/07/10 00:35:23;;;;;;;;;8.25;5.25;;;;;26.75;41.71;101663.81;4920585;28;46213;-44
2023/07/10 00:38:02;;;;;;;;;7.00;7.00;;;;;26.73;41.49;101659.56;4920645;28;45281;-46
2023/07/10 00:40:33;;;;;;;;;7.25;5.75;;;;;26.74;41.82;101662.13;4920617;28;45410;-45
2023/07/10 00:43:16;;;;;;;;;5.25;4.50;;;;;26.74;41.54;101663.94;4920868;28;45329;-46
2023/07/10 00:45:41;;;;;;;;;7.00;5.25;;;;;26.73;41.39;101664.88;4920500;28;45330;-46
2023/07/10 00:48:32;;;;;;;;;5.00;5.00;;;;;26.72;41.22;101666.72;4920167;28;63710;-45
2023/07/10 00:51:02;;;;;;;;;4.25;3.25;;;;;26.72;41.29;101672.03;4920531;28;45400;-44
2023/07/10 00:53:34;;;;;;;;;6.25;4.00;;;;;26.70;41.27;101669.47;4920771;28;45232;-45
2023/07/10 00:56:01;;;;;;;;;4.00;3.00;;;;;26.69;40.93;101659.78;4934959;28;47486;-43
2023/07/10 00:58:35;;;;;;;;;5.75;5.00;;;;;26.69;41.22;101669.56;4920304;28;45338;-46
2023/07/10 01:01:02;;;;;;;;;5.00;5.00;;;;;26.71;40.94;101667.66;4920380;28;45232;-49
2023/07/10 01:03:28;;;;;;;;;7.25;6.00;;;;;26.68;41.00;101651.91;4920543;28;45263;-49
2023/07/10 01:05:55;;;;;;;;;4.25;4.25;;;;;26.68;40.91;101649.25;4920234;28;46759;-45
2023/07/10 01:08:20;;;;;;;;;5.75;5.75;;;;;26.67;41.10;101651.06;4920230;28;45380;-43
2023/07/10 01:10:45;;;;;;;;;4.00;4.00;;;;;26.66;40.88;101654.69;4920187;28;45425;-46
2023/07/10 01:13:11;;;;;;;;;5.75;5.75;;;;;26.64;40.88;101639.78;4920357;28;45552;-44
2023/07/10 01:15:36;;;;;;;;;4.50;4.50;;;;;26.66;40.56;101637.88;4920249;28;45383;-46
2023/07/10 01:18:02;;;;;;;;;7.50;3.50;;;;;26.65;40.77;101652.97;4920061;28;45318;-45
2023/07/10 01:20:33;;;;;;;;;6.00;5.00;;;;;26.65;40.64;101657.44;4920091;28;45366;-46
2023/07/10 01:23:00;;;;;;;;;7.75;4.25;;;;;26.64;40.38;101645.97;4920250;28;45222;-46
2023/07/10 01:25:27;;;;;;;;;3.00;3.00;;;;;26.65;40.31;101646.81;4919659;28;45367;-46
2023/07/10 01:27:52;;;;;;;;;5.50;4.50;;;;;26.64;40.32;101645.97;4919621;28;45758;-45
2023/07/10 01:30:33;;;;;;;;;4.75;4.50;;;;;26.64;40.46;101651.28;4919650;28;45354;-43
2023/07/10 01:32:59;;;;;;;;;4.75;3.25;;;;;26.63;40.33;101649.56;4920029;28;45177;-44
2023/07/10 01:35:29;;;;;;;;;6.00;4.50;;;;;26.63;40.46;101648.72;4919710;28;46295;-45
2023/07/10 01:37:54;;;;;;;;;4.25;3.75;;;;;26.64;40.34;101658.38;4919706;28;45256;-47
2023/07/10 01:40:29;;;;;;;;;4.50;4.00;;;;;26.63;40.50;101665.53;4919929;28;45745;-42
2023/07/10 01:42:59;;;;;;;;;4.75;3.75;;;;;26.64;40.50;101671.69;4920095;28;45315;-46
2023/07/10 01:45:27;;;;;;;;;5.75;3.25;;;;;26.64;40.38;101663.72;4919641;28;46513;-46
2023/07/10 01:47:52;;;;;;;;;4.00;4.00;;;;;26.62;40.72;101668.31;4919766;28;45984;-43
2023/07/10 01:50:19;;;;;;;;;3.00;3.00;;;;;26.62;40.47;101660.31;4919709;28;45273;-45
2023/07/10 01:52:44;;;;;;;;;4.25;4.00;;;;;26.62;40.65;101668.31;4919706;28;45302;-44
2023/07/10 01:55:12;;;;;;;;;3.50;3.50;;;;;26.62;40.77;101663.00;4919580;28;48010;-45
2023/07/10 01:57:37;;;;;;;;;3.50;3.25;;;;;26.62;40.79;101665.66;4919520;28;45448;-45
2023/07/10 02:00:04;;;;;;;;;5.25;5.25;;;;;26.64;41.14;101667.22;4919515;28;45289;-46
2023/07/10 02:02:30;;;;;;;;;6.00;4.25;;;;;26.62;41.15;101663.00;4919622;28;45566;-45
2023/07/10 02:04:55;;;;;;;;;4.00;4.00;;;;;26.64;41.09;101671.69;4919255;28;46622;-44
2023/07/10 02:07:20;;;;;;;;;3.75;2.25;;;;;26.63;41.28;101662.88;4918891;28;57243;-46
2023/07/10 02:09:46;;;;;;;;;6.75;4.50;;;;;26.64;41.35;101666.38;4919474;28;45366;-47
2023/07/10 02:12:11;;;;;;;;;6.00;4.75;;;;;26.65;41.37;101668.06;4919730;28;45592;-45
2023/07/10 02:14:36;;;;;;;;;3.00;3.00;;;;;26.64;41.60;101666.38;4919274;28;48224;-47
2023/07/10 02:17:02;;;;;;;;;3.00;3.00;;;;;26.63;41.37;101669.97;4917931;28;45369;-47
2023/07/10 02:19:27;;;;;;;;;3.00;3.00;;;;;26.64;41.93;101669.91;4919249;28;45323;-46
2023/07/10 02:21:53;;;;;;;;;7.00;4.00;;;;;26.63;41.95;101669.97;4919501;28;45927;-46
2023/07/10 02:24:18;;;;;;;;;6.25;4.75;;;;;26.63;42.33;101669.97;4918993;28;46126;-47
2023/07/10 02:26:44;;;;;;;;;4.00;2.00;;;;;26.59;42.27;101672.00;4919430;28;45396;-48
2023/07/10 02:29:09;;;;;;;;;5.00;3.00;;;;;26.54;42.39;101669.66;4919397;28;45268;-47
2023/07/10 02:31:34;;;;;;;;;4.00;4.00;;;;;26.48;42.40;101672.75;4919492;28;46146;-46
2023/07/10 02:34:00;;;;;;;;;3.25;3.00;;;;;26.43;42.55;101666.88;4919108;28;46039;-45
2023/07/10 02:36:28;;;;;;;;;4.75;4.25;;;;;26.39;42.73;101674.22;4919202;28;45425;-47
2023/07/10 02:38:53;;;;;;;;;4.75;4.75;;;;;26.37;42.88;101669.97;4919150;28;45354;-48
2023/07/10 02:41:19;;;;;;;;;3.75;3.75;;;;;26.32;42.46;101667.63;4918074;28;45187;-46
2023/07/10 02:43:44;;;;;;;;;6.00;4.00;;;;;26.31;42.66;101675.69;4918619;28;62819;-46
2023/07/10 02:46:10;;;;;;;;;3.50;3.00;;;;;26.29;42.88;101677.59;4918915;28;45513;-46
2023/07/10 02:48:35;;;;;;;;;3.75;2.75;;;;;26.24;43.34;101673.44;4918910;28;45596;-49
2023/07/10 02:51:00;;;;;;;;;3.75;3.75;;;;;26.22;43.03;101680.66;4918531;28;51249;-45
2023/07/10 02:53:26;;;;;;;;;4.75;4.75;;;;;26.18;42.97;101676.50;4918678;28;46147;-48
2023/07/10 02:55:52;;;;;;;;;3.00;3.00;;;;;26.16;43.35;101675.78;4918810;28;45415;-47
2023/07/10 02:58:17;;;;;;;;;4.50;4.00;;;;;26.14;43.54;101677.66;4918971;28;45350;-47
2023/07/10 03:00:42;;;;;;;;;4.00;4.00;;;;;26.13;43.77;101683.94;4919331;28;45401;-50
2023/07/10 03:03:07;;;;;;;;;3.00;3.00;;;;;26.12;43.10;101692.00;4918583;28;45427;-51
2023/07/10 03:05:33;;;;;;;;;3.50;3.50;;;;;26.09;43.66;101687.69;4918509;28;45382;-45
2023/07/10 03:07:58;;;;;;;;;4.50;3.00;;;;;26.08;43.75;101694.84;4918719;28;45373;-46
2023/07/10 03:10:24;;;;;;;;;4.75;3.75;;;;;26.07;43.50;101694.94;4918918;28;45298;-49
2023/07/10 03:12:49;;;;;;;;;6.00;4.00;;;;;26.04;43.79;101695.97;4918355;28;45298;-47
2023/07/10 03:15:15;;;;;;;;;7.00;4.25;;;;;26.02;43.49;101697.03;4918697;28;45254;-45
2023/07/10 03:17:41;;;;;;;;;3.75;3.75;;;;;26.00;43.84;101689.19;4917361;28;45501;-45
2023/07/10 03:20:07;;;;;;;;;4.00;4.00;;;;;25.96;43.81;101687.66;4918749;28;45646;-47
2023/07/10 03:22:33;;;;;;;;;4.00;3.25;;;;;25.96;43.85;101692.97;4918348;28;46488;-45
2023/07/10 03:24:58;;;;;;;;;3.00;3.00;;;;;25.95;43.99;101691.28;4918250;28;45400;-44
2023/07/10 03:27:24;;;;;;;;;4.00;4.00;;;;;25.93;43.62;101699.34;4918478;28;45374;-46
2023/07/10 03:29:50;;;;;;;;;6.50;3.50;;;;;25.90;43.96;101696.03;4918551;28;45396;-47
2023/07/10 03:32:16;;;;;;;;;4.00;4.00;;;;;25.89;43.76;101697.84;4918394;28;45362;-47
2023/07/10 03:34:41;;;;;;;;;5.50;4.00;;;;;25.88;44.03;101703.25;4918241;28;45444;-47
2023/07/10 03:37:07;;;;;;;;;4.00;4.00;;;;;25.84;44.52;101699.94;4918327;28;45375;-45
2023/07/10 03:39:32;;;;;;;;;5.00;5.00;;;;;25.85;44.05;101700.78;4918503;28;45477;-48
2023/07/10 03:41:58;;;;;;;;;5.00;5.00;;;;;25.82;44.12;101699.19;4918098;28;46458;-44
2023/07/10 03:44:23;;;;;;;;;5.00;5.00;;;;;25.80;44.57;101701.09;4918094;28;45413;-47
2023/07/10 03:46:49;;;;;;;;;5.25;5.25;;;;;25.81;44.54;101712.56;4918542;28;45390;-46
2023/07/10 03:49:14;;;;;;;;;5.00;5.00;;;;;25.80;44.46;101711.72;4917252;28;45502;-46
2023/07/10 03:51:39;;;;;;;;;4.50;4.50;;;;;25.77;44.39;101703.94;4918483;28;47548;-46
2023/07/10 03:54:05;;;;;;;;;3.50;3.50;;;;;25.79;44.48;101712.66;4921378;28;45445;-45
2023/07/10 03:56:31;;;;;;;;;7.25;5.25;;;;;25.78;44.20;101713.59;4921414;28;45247;-45
2023/07/10 03:58:56;;;;;;;;;8.25;6.25;;;;;25.77;44.77;101712.78;4921578;28;45688;-46
2023/07/10 04:01:22;;;;;;;;;7.75;6.50;;;;;25.78;44.65;101708.28;4921071;28;46067;-47
2023/07/10 04:03:47;;;;;;;;;7.00;7.00;;;;;25.77;44.40;101720.72;4920127;28;45444;-49
2023/07/10 04:06:15;;;;;;;;;7.25;6.00;;;;;25.76;44.29;101719.03;4921343;28;45228;-44
2023/07/10 04:08:42;;;;;;;;;5.25;5.25;;;;;25.75;44.32;101721.75;4921336;28;45351;-47
2023/07/10 04:11:14;;;;;;;;;7.25;6.00;;;;;25.75;44.66;101714.66;4920904;28;45508;-45
2023/07/10 04:13:40;;;;;;;;;4.50;4.25;;;;;25.73;44.41;101719.22;4920973;28;45707;-46
2023/07/10 04:16:16;;;;;;;;;4.75;4.00;;;;;25.74;44.49;101726.22;4920931;28;45335;-47
2023/07/10 04:18:43;;;;;;;;;4.50;4.00;;;;;25.71;44.62;101721.09;4921339;28;45484;-46
2023/07/10 04:21:30;;;;;;;;;2.75;2.00;;;;;25.75;44.60;101735.03;4919537;28;48307;-45
2023/07/10 04:23:56;;;;;;;;;3.00;3.00;;;;;25.73;44.91;101732.50;4920821;28;45386;-48
2023/07/10 04:26:25;;;;;;;;;3.50;3.25;;;;;25.74;44.35;101738.66;4921353;28;45311;-46
2023/07/10 04:28:54;;;;;;;;;4.00;4.00;;;;;25.72;44.54;101737.91;4921320;28;45417;-46
2023/07/10 04:31:21;;;;;;;;;4.00;3.25;;;;;25.71;44.29;101746.81;4920778;28;46668;-47
2023/07/10 04:33:48;;;;;;;;;2.75;2.75;;;;;25.69;44.25;101746.91;4920832;28;45488;-46
2023/07/10 04:36:14;;;;;;;;;4.25;4.00;;;;;25.68;44.33;101749.66;4921014;28;45304;-47
2023/07/10 04:38:39;;;;;;;;;5.25;4.00;;;;;25.64;44.63;101746.34;4935789;28;45383;-46
2023/07/10 04:41:07;;;;;;;;;4.00;4.00;;;;;25.63;44.39;101745.47;4920442;28;46643;-46
2023/07/10 04:43:35;;;;;;;;;5.00;4.00;;;;;25.64;44.63;101754.31;4920700;28;45318;-46
2023/07/10 04:46:03;;;;;;;;;4.00;4.00;;;;;25.63;44.77;101753.44;4920790;28;45258;-47
2023/07/10 04:48:29;;;;;;;;;7.00;3.00;;;;;25.62;44.46;101745.59;4920971;28;45159;-44
2023/07/10 04:50:57;;;;;;;;;2.50;2.00;;;;;25.64;45.05;101751.66;4920118;28;46705;-48
2023/07/10 04:53:23;;;;;;;;;3.50;3.50;;;;;25.64;45.00;101754.31;4920778;28;45338;-46
2023/07/10 04:55:51;;;;;;;;;3.75;3.25;;;;;25.62;44.51;101754.44;4920785;28;45432;-46
2023/07/10 04:58:16;;;;;;;;;3.00;3.00;;;;;25.65;44.91;101757.81;4920677;28;45291;-47
2023/07/10 05:00:43;;;;;;;;;4.50;3.00;;;;;25.63;45.01;101756.09;4920365;28;45529;-43
2023/07/10 05:03:09;;;;;;;;;3.25;3.25;;;;;25.63;44.99;101752.59;4919292;28;45285;-46
2023/07/10 05:05:34;;;;;;;;;2.75;2.75;;;;;25.64;44.63;101756.97;4920479;28;45488;-50
2023/07/10 05:08:00;;;;;;;;;4.00;3.00;;;;;25.64;44.90;101756.97;4920442;28;45390;-45
2023/07/10 05:10:27;;;;;;;;;2.00;1.50;;;;;25.61;44.96;101757.16;4919962;28;45526;-45
2023/07/10 05:12:53;;;;;;;;;3.25;3.25;;;;;25.61;44.60;101751.84;4920384;28;45444;-45
2023/07/10 05:15:19;;;;;;;;;3.00;3.00;;;;;25.62;44.66;101754.44;4919851;28;45334;-46
2023/07/10 05:17:46;;;;;;;;;3.00;3.00;;;;;25.62;44.35;101753.56;4919900;28;45813;-44
2023/07/10 05:20:11;;;;;;;;;3.75;3.00;;;;;25.63;44.67;101756.09;4919976;28;45466;-47
2023/07/10 05:22:36;;;;;;;;;2.75;2.75;;;;;25.63;44.58;101755.25;4919975;28;45244;-46
2023/07/10 05:25:02;;;;;;;;;2.25;2.25;;;;;25.62;44.76;101765.03;4919740;28;45328;-42
2023/07/10 05:27:27;;;;;;;;;3.00;3.00;;;;;25.61;44.52;101762.47;4920108;28;45188;-46
2023/07/10 05:29:53;;;;;;;;;3.25;2.25;;;;;25.59;44.80;101756.41;4919684;28;60587;-47
2023/07/10 05:32:18;;;;;;;;;4.25;3.25;;;;;25.58;44.36;101760.88;4919712;28;45400;-45
2023/07/10 05:34:44;;;;;;;;;2.75;2.75;;;;;25.58;44.70;101760.00;4919455;28;51298;-44
2023/07/10 05:37:10;;;;;;;;;2.50;2.50;;;;;25.55;44.80;101754.91;4934813;28;45315;-46
2023/07/10 05:39:35;;;;;;;;;3.00;3.00;;;;;25.56;44.86;101762.75;4919678;28;45412;-46
2023/07/10 05:42:00;;;;;;;;;3.00;2.75;;;;;25.52;44.91;101755.91;4919422;28;49948;-47
2023/07/10 05:44:26;;;;;;;;;5.00;3.00;;;;;25.53;44.62;101754.97;4919599;28;56402;-48
2023/07/10 05:46:51;;;;;;;;;2.00;2.00;;;;;25.50;44.57;101749.00;4919941;28;45318;-43
2023/07/10 05:49:17;;;;;;;;;4.25;3.00;;;;;25.50;44.60;101754.31;4919554;28;46858;-44
2023/07/10 05:51:43;;;;;;;;;4.75;3.50;;;;;25.48;44.74;101757.06;4919563;28;45346;-44
2023/07/10 05:54:08;;;;;;;;;3.00;3.00;;;;;25.47;44.12;101752.72;4919585;28;45286;-45
2023/07/10 05:56:33;;;;;;;;;4.75;3.00;;;;;25.44;44.43;101751.13;4919747;28;45234;-45
2023/07/10 05:59:01;;;;;;;;;2.00;2.00;;;;;25.43;44.08;101760.03;4919242;28;45398;-45
2023/07/10 06:01:26;;;;;;;;;3.00;2.25;;;;;25.43;44.53;101759.16;4919737;28;45243;-44
2023/07/10 06:03:51;;;;;;;;;3.00;3.00;;;;;25.40;44.20;101748.72;4919567;28;45251;-45
2023/07/10 06:06:17;;;;;;;;;2.25;2.25;;;;;25.41;44.15;101750.47;4919508;28;45273;-45
2023/07/10 06:08:43;;;;;;;;;2.50;2.50;;;;;25.41;44.53;101755.75;4918950;28;52774;-46
2023/07/10 06:11:09;;;;;;;;;3.50;2.75;;;;;25.40;44.00;101756.69;4919128;28;48072;-49
2023/07/10 06:13:35;;;;;;;;;4.50;3.25;;;;;25.40;44.59;101746.06;4919462;28;45368;-47
2023/07/10 06:16:05;;;;;;;;;3.75;3.00;;;;;25.42;44.15;101758.31;4919071;28;45454;-48
2023/07/10 06:18:30;;;;;;;;;6.00;2.25;;;;;25.43;43.87;101759.16;4919047;28;45610;-46
2023/07/10 06:20:59;;;;;;;;;2.25;2.25;;;;;25.45;43.79;101757.25;4919458;28;45343;-46
2023/07/10 06:23:26;;;;;;;;;3.00;3.00;;;;;25.47;43.79;101763.34;4919693;28;45433;-47
2023/07/10 06:25:52;;;;;;;;;3.00;3.00;;;;;25.49;44.45;101764.09;4919101;28;45500;-50
2023/07/10 06:28:18;;;;;;;;;4.50;3.00;;;;;25.50;43.95;101755.19;4918927;28;45461;-43
2023/07/10 06:30:53;;;;;;;;;7.50;4.00;;;;;25.52;44.33;101755.09;4918914;28;45545;-45
2023/07/10 06:33:18;;;;;;;;;4.00;3.00;;;;;25.55;43.86;101757.56;4919123;28;45353;-45
2023/07/10 06:35:43;;;;;;;;;3.00;3.00;;;;;25.55;44.13;101762.88;4918906;28;45440;-47
2023/07/10 06:38:09;;;;;;;;;2.25;2.25;;;;;25.55;43.83;101753.09;4933607;28;46380;-45
2023/07/10 06:40:34;;;;;;;;;1.75;1.25;;;;;25.55;43.80;101758.41;4918348;28;56444;-47
2023/07/10 06:42:59;;;;;;;;;5.00;3.00;;;;;25.58;44.42;101758.22;4918440;28;61350;-47
2023/07/10 06:45:25;;;;;;;;;2.50;2.50;;;;;25.59;43.79;101753.75;4919083;28;45355;-45
2023/07/10 06:47:50;;;;;;;;;6.00;3.00;;;;;25.59;43.95;101754.59;4918593;28;48487;-45
2023/07/10 06:50:16;;;;;;;;;4.00;3.00;;;;;25.61;44.15;101758.03;4918690;28;45338;-45
2023/07/10 06:52:44;;;;;;;;;2.50;2.50;;;;;25.63;44.44;101756.09;4933278;28;45504;-48
2023/07/10 06:55:12;;;;;;;;;3.00;3.00;;;;;25.67;43.79;101751.47;4918988;28;45557;-44
2023/07/10 06:57:38;;;;;;;;;7.00;3.50;;;;;25.69;43.72;101748.72;4918427;28;45423;-46
2023/07/10 07:00:06;;;;;;;;;4.00;3.75;;;;;25.72;43.72;101753.84;4918461;28;45340;-45
2023/07/10 07:02:32;;;;;;;;;6.00;4.00;;;;;25.73;43.79;101745.75;4918504;28;45364;-46
2023/07/10 07:04:57;;;;;;;;;5.50;5.00;;;;;25.75;43.95;101745.66;4919003;28;45291;-47
2023/07/10 07:07:23;;;;;;;;;5.25;3.50;;;;;25.76;44.02;101750.03;4918380;28;46090;-47
2023/07/10 07:09:48;;;;;;;;;4.25;4.25;;;;;25.80;43.95;101751.53;4918377;28;45255;-46
2023/07/10 07:12:13;;;;;;;;;4.25;4.00;;;;;25.81;44.17;101753.25;4918496;28;45269;-48
2023/07/10 07:14:38;;;;;;;;;4.00;3.75;;;;;25.83;43.63;101751.34;4918102;28;54468;-46
2023/07/10 07:17:05;;;;;;;;;6.25;3.50;;;;;25.84;43.73;101753.06;4918075;28;46246;-43
2023/07/10 07:19:30;;;;;;;;;7.50;3.25;;;;;25.87;43.62;101752.00;4918679;28;45362;-48
2023/07/10 07:21:56;;;;;;;;;9.00;4.00;;;;;25.89;43.76;101750.94;4917954;28;45324;-44
2023/07/10 07:24:21;;;;;;;;;5.00;3.00;;;;;25.90;43.64;101744.69;4917614;28;45291;-45
2023/07/10 07:26:46;;;;;;;;;5.25;3.75;;;;;25.93;43.80;101752.47;4941012;28;47993;-45
2023/07/10 07:29:12;;;;;;;;;5.50;4.00;;;;;25.93;43.76;101749.81;4921177;28;54788;-46
2023/07/10 07:31:40;;;;;;;;;3.00;3.00;;;;;25.96;43.79;101756.72;4921571;28;45360;-46
2023/07/10 07:34:05;;;;;;;;;7.00;3.25;;;;;25.97;43.71;101747.81;4921716;28;45381;-44
2023/07/10 07:36:34;;;;;;;;;4.50;2.25;;;;;25.99;43.57;101751.22;4921719;28;45344;-44
2023/07/10 07:39:00;;;;;;;;;3.00;3.00;;;;;26.01;43.62;101754.63;4921585;28;45313;-43
2023/07/10 07:41:25;;;;;;;;;3.75;3.00;;;;;26.04;43.56;101750.91;4921523;28;45377;-43
2023/07/10 07:43:50;;;;;;;;;4.25;4.00;;;;;26.03;43.25;101742.09;4920800;28;57987;-45
2023/07/10 07:46:16;;;;;;;;;3.00;2.00;;;;;26.07;42.77;101753.38;4921064;28;46575;-44
2023/07/10 07:48:41;;;;;;;;;4.00;2.25;;;;;26.07;42.92;101750.72;4921156;28;45360;-44
2023/07/10 07:51:08;;;;;;;;;2.75;2.00;;;;;26.03;42.79;101741.25;4921312;28;45372;-44
2023/07/10 07:53:39;;;;;;;;;1.00;1.00;;;;;26.05;42.88;101737.53;4921652;28;45341;-46
2023/07/10 07:56:05;;;;;;;;;2.00;2.00;;;;;26.09;42.76;101738.19;4921170;28;45644;-44
2023/07/10 07:58:30;;;;;;;;;3.00;3.00;;;;;26.10;42.29;101739.06;4921480;28;45457;-43
2023/07/10 08:00:56;;;;;;;;;2.00;2.00;;;;;26.13;41.90;101742.38;4921447;28;45239;-47
2023/07/10 08:03:22;;;;;;;;;3.00;2.00;;;;;26.14;41.65;101735.25;4921373;28;45532;-44
2023/07/10 08:05:47;;;;;;;;;1.50;1.50;;;;;26.15;42.34;101742.28;4920186;28;45682;-44
2023/07/10 08:08:12;;;;;;;;;5.00;3.00;;;;;26.15;41.58;101735.16;4920338;28;45247;-44
2023/07/10 08:10:44;;;;;;;;;5.50;2.00;;;;;26.17;42.28;101735.94;4920860;28;45454;-43
2023/07/10 08:13:10;;;;;;;;;2.00;2.00;;;;;26.17;41.71;101727.97;4936006;28;45552;-44
2023/07/10 08:15:36;;;;;;;;;2.00;2.00;;;;;26.19;41.72;101728.69;4920859;28;46522;-44
2023/07/10 08:18:02;;;;;;;;;4.00;2.25;;;;;26.21;41.82;101731.25;4921168;28;45358;-44
2023/07/10 08:20:27;;;;;;;;;5.25;3.25;;;;;26.21;41.89;101731.25;4921090;28;45906;-44
2023/07/10 08:22:53;;;;;;;;;4.00;4.00;;;;;26.21;41.90;101729.44;4921117;28;45409;-47
2023/07/10 08:25:18;;;;;;;;;5.00;2.00;;;;;26.22;41.70;101728.50;4920559;28;46045;-46
2023/07/10 08:27:45;;;;;;;;;3.00;2.00;;;;;26.26;41.55;101739.75;4920760;28;45336;-43
2023/07/10 08:30:11;;;;;;;;;2.50;2.00;;;;;26.24;40.89;101731.91;4920818;28;45328;-42
2023/07/10 08:32:36;;;;;;;;;3.25;2.00;;;;;26.27;41.07;101737.97;4921196;28;45844;-44
2023/07/10 19:40:34;;;;;;;;;3.00;1.00;;;;;26.91;33.25;101301.06;5020574;23;45540;-40
2023/07/10 19:43:00;;;;;;;;;2.00;1.50;;;;;26.91;32.96;101295.75;4939027;28;47292;-43
2023/07/10 19:45:25;;;;;;;;;1.75;1.75;;;;;26.90;33.61;101289.56;4940443;28;45253;-42
2023/07/10 19:47:50;;;;;;;;;3.00;1.00;;;;;26.91;33.95;101301.91;4940986;28;45352;-43
2023/07/10 19:50:18;;;;;;;;;2.00;2.00;;;;;26.92;33.52;101297.44;4940655;28;45600;-41
2023/07/10 19:52:43;;;;;;;;;1.00;1.00;;;;;26.91;33.42;101296.56;4940171;28;46352;-39
2023/07/10 19:55:14;;;;;;;;;2.00;2.00;;;;;26.92;33.34;101297.44;4940310;28;45275;-48
2023/07/10 19:57:40;;;;;;;;;1.00;1.00;;;;;26.91;33.43;101296.56;4940554;28;45435;-45
2023/07/10 20:00:06;;;;;;;;;2.00;1.00;;;;;26.92;33.58;101294.78;4940553;28;45424;-44
2023/07/10 20:02:31;;;;;;;;;1.00;1.00;;;;;26.91;33.58;101293.91;4940282;28;46360;-41
2023/07/10 20:04:56;;;;;;;;;3.75;1.00;;;;;26.91;33.59;101296.56;4940190;28;45348;-41
2023/07/10 20:07:22;;;;;;;;;2.00;2.00;;;;;26.91;33.58;101295.75;4940788;28;45305;-44
2023/07/10 20:09:47;;;;;;;;;3.00;1.50;;;;;26.92;33.82;101297.44;4940618;28;45432;-43
2023/07/10 20:12:21;;;;;;;;;2.50;1.50;;;;;26.93;33.89;101299.13;4940228;28;46432;-44
2023/07/10 20:14:46;;;;;;;;;4.00;2.00;;;;;26.92;33.79;101300.09;4940356;28;45269;-48
2023/07/10 20:17:28;;;;;;;;;2.75;2.00;;;;;26.94;34.21;101306.16;4940186;28;45411;-42
2023/07/10 20:19:53;;;;;;;;;1.75;1.75;;;;;26.93;34.00;101310.59;4940551;28;45457;-39
2023/07/10 20:22:19;;;;;;;;;2.00;1.00;;;;;26.95;33.99;101306.03;4954483;28;60339;-40
2023/07/10 20:24:44;;;;;;;;;2.00;2.00;;;;;26.97;33.80;101300.59;4939874;28;51706;-43
2023/07/10 20:27:09;;;;;;;;;2.00;2.00;;;;;27.01;34.24;101302.06;4939539;28;59198;-44
2023/07/10 20:29:35;;;;;;;;;0.50;0.50;;;;;27.05;34.08;101307.97;4940129;28;45408;-43
2023/07/10 20:32:00;;;;;;;;;1.00;1.00;;;;;27.06;34.00;101304.38;4939867;28;46235;-43
2023/07/10 20:34:28;;;;;;;;;3.00;1.75;;;;;27.07;34.01;101312.22;4939735;28;45217;-47
2023/07/10 20:36:53;;;;;;;;;3.00;2.75;;;;;27.10;34.02;101303.19;4940240;28;45298;-44
2023/07/10 20:39:19;;;;;;;;;3.00;2.00;;;;;27.13;34.16;101305.56;4940100;28;45490;-47
2023/07/10 20:41:46;;;;;;;;;2.50;2.00;;;;;27.15;34.03;101308.97;4939892;28;45407;-42
2023/07/10 20:44:13;;;;;;;;;1.00;1.00;;;;;27.15;34.17;101308.97;4940116;28;45418;-46
2023/07/10 20:46:46;;;;;;;;;4.00;2.00;;;;;27.13;34.45;101306.44;4939894;28;45465;-47
2023/07/10 20:49:16;;;;;;;;;2.00;2.00;;;;;27.14;34.45;101304.63;4940154;28;45350;-46
2023/07/10 20:51:42;;;;;;;;;2.75;2.75;;;;;27.11;34.26;101297.72;4939705;28;45777;-46
2023/07/10 20:54:10;;;;;;;;;1.00;0.25;;;;;27.10;34.19;101300.50;4939558;28;45381;-44
2023/07/10 20:56:36;;;;;;;;;2.50;2.50;;;;;27.10;34.61;101305.84;4939739;28;45368;-46
2023/07/10 20:59:16;;;;;;;;;3.00;2.25;;;;;27.11;34.58;101304.88;4938438;28;45416;-40
2023/07/10 21:01:42;;;;;;;;;2.00;2.00;;;;;27.08;34.36;101300.63;4939479;28;45335;-41
2023/07/10 21:04:07;;;;;;;;;3.00;1.50;;;;;27.07;34.25;101301.56;4939550;28;45354;-44
2023/07/10 21:06:34;;;;;;;;;3.00;3.00;;;;;27.06;34.31;101304.38;4939518;28;48966;-45
2023/07/10 21:09:01;;;;;;;;;3.50;1.75;;;;;27.04;34.76;101296.50;4939694;28;45557;-40
2023/07/10 21:11:29;;;;;;;;;3.00;2.00;;;;;27.05;34.60;101298.22;4939427;28;47229;-40
2023/07/10 21:13:55;;;;;;;;;3.00;3.00;;;;;27.04;34.35;101296.50;4939567;28;45634;-41
2023/07/10 21:16:26;;;;;;;;;4.25;3.00;;;;;27.03;34.39;101296.59;4939496;28;45341;-43
2023/07/10 21:18:53;;;;;;;;;5.00;3.00;;;;;27.04;34.58;101298.31;4939575;28;45429;-39
2023/07/10 21:21:18;;;;;;;;;4.25;3.00;;;;;27.03;34.39;101294.81;4939241;28;45432;-42
2023/07/10 21:23:44;;;;;;;;;3.25;3.00;;;;;27.03;34.42;101289.50;4939229;28;45324;-45
2023/07/10 21:26:14;;;;;;;;;3.00;3.00;;;;;27.01;34.33;101286.09;4939341;28;45424;-41
2023/07/10 21:28:51;;;;;;;;;3.00;3.00;;;;;27.00;34.47;101279.94;4939481;28;45527;-38
2023/07/10 21:31:19;;;;;;;;;5.00;3.00;;;;;26.99;34.27;101278.25;4939205;28;45715;-40
2023/07/10 21:33:45;;;;;;;;;2.75;2.75;;;;;27.01;34.42;101291.41;4938991;28;45456;-37
2023/07/10 21:36:11;;;;;;;;;3.00;2.00;;;;;27.00;34.35;101284.41;4939261;28;45400;-38
2023/07/10 21:38:37;;;;;;;;;3.25;3.00;;;;;26.98;34.11;101276.53;4939190;28;45485;-37
2023/07/10 21:41:03;;;;;;;;;3.00;2.00;;;;;26.99;34.22;101277.38;4939114;28;45173;-38
2023/07/10 21:43:34;;;;;;;;;5.25;4.00;;;;;26.98;34.28;101271.22;4939419;28;45544;-37
2023/07/10 21:46:02;;;;;;;;;4.75;2.75;;;;;26.98;34.03;101271.22;4938717;28;45408;-42
2023/07/10 21:48:32;;;;;;;;;5.00;3.25;;;;;26.98;34.03;101281.00;4939439;28;45344;-41
2023/07/10 21:51:03;;;;;;;;;3.25;3.25;;;;;26.97;34.13;101273.97;4938899;28;46425;-40
2023/07/10 21:53:29;;;;;;;;;5.00;3.00;;;;;26.97;34.44;101273.97;4937670;28;46190;-48
2023/07/10 21:56:01;;;;;;;;;3.75;3.25;;;;;26.97;34.11;101271.31;4938927;28;45226;-44
2023/07/10 21:58:33;;;;;;;;;4.50;2.50;;;;;26.97;34.19;101268.66;4939453;28;45190;-42
2023/07/10 22:00:59;;;;;;;;;3.75;3.00;;;;;26.97;33.71;101277.50;4953891;28;47607;-47
2023/07/10 22:03:26;;;;;;;;;3.00;3.00;;;;;26.97;33.96;101273.97;4938720;28;45404;-39
2023/07/10 22:05:54;;;;;;;;;4.00;3.25;;;;;26.96;34.03;101267.81;4938915;28;45265;-42
2023/07/10 22:08:20;;;;;;;;;3.00;3.00;;;;;26.93;34.18;101264.56;4938988;28;45158;-44
2023/07/10 22:10:47;;;;;;;;;3.75;3.00;;;;;26.95;33.97;101270.63;4937285;28;45480;-43
2023/07/10 22:13:15;;;;;;;;;3.00;2.00;;;;;26.95;34.11;101265.28;4938358;28;45398;-44
2023/07/10 22:15:41;;;;;;;;;4.75;3.00;;;;;26.96;33.94;101264.31;4938545;28;45395;-44
2023/07/10 22:18:35;;;;;;;;;4.75;3.25;;;;;26.94;33.99;101258.28;4938588;28;45258;-43
2023/07/10 22:21:03;;;;;;;;;4.00;3.25;;;;;26.95;34.26;101254.66;4941970;28;46170;-47
2023/07/10 22:23:31;;;;;;;;;5.00;4.00;;;;;26.94;33.88;101253.78;4938596;28;45278;-44
2023/07/10 22:25:58;;;;;;;;;4.00;4.00;;;;;26.95;34.08;101252.00;4937230;28;45474;-38
2023/07/10 22:28:27;;;;;;;;;2.00;2.00;;;;;26.93;34.16;101254.75;4938625;28;45349;-43